Time;durP1;ratioP1;P1;durP2;ratioP2;P2;SDS_P1;SDS_P2;PMS_P1;PMS_P2;Temp;Humidity;BMP_temperature;BMP_pressure;BME280_temperature;BME280_humidity;BME280_pressure;Samples;Min_cycle;Max_cycle;Signal;HPM_P1;HPM_P2
2023/09/01 00:01:10;;;;;;;;;0.67;0.67;;;;;;;;4618299;30;29256;-70
2023/09/01 00:03:35;;;;;;;;;0.33;0.00;;;;;;;;4621808;30;28409;-69
2023/09/01 00:06:02;;;;;;;;;0.00;0.00;;;;;;;;4612705;30;28493;-69
2023/09/01 00:08:28;;;;;;;;;0.33;0.33;;;;;;;;4622247;30;28370;-69
2023/09/01 00:10:53;;;;;;;;;1.00;1.00;;;;;;;;4615665;30;29417;-69
2023/09/01 00:13:18;;;;;;;;;1.00;0.00;;;;;;;;4622464;30;28468;-69
2023/09/01 00:15:44;;;;;;;;;0.00;0.00;;;;;;;;4616097;30;28450;-69
2023/09/01 00:18:09;;;;;;;;;0.00;0.00;;;;;;;;4613525;30;28545;-68
2023/09/01 00:20:34;;;;;;;;;0.00;0.00;;;;;;;;4625302;30;29197;-69
2023/09/01 00:23:00;;;;;;;;;0.00;0.00;;;;;;;;4620644;30;28453;-69
2023/09/01 00:25:26;;;;;;;;;0.00;0.00;;;;;;;;4619135;30;28599;-69
2023/09/01 00:27:51;;;;;;;;;0.00;0.00;;;;;;;;4626750;30;28344;-69
2023/09/01 00:30:16;;;;;;;;;1.00;0.00;;;;;;;;4613999;30;29087;-69
2023/09/01 00:32:41;;;;;;;;;0.33;0.00;;;;;;;;4624023;30;28348;-69
2023/09/01 00:35:06;;;;;;;;;1.00;0.00;;;;;;;;4620329;30;28536;-69
2023/09/01 00:37:32;;;;;;;;;0.33;0.33;;;;;;;;4623039;30;28568;-69
2023/09/01 00:39:57;;;;;;;;;1.00;0.00;;;;;;;;4614977;30;29148;-69
2023/09/01 00:42:22;;;;;;;;;0.00;0.00;;;;;;;;4614579;30;28358;-69
2023/09/01 00:44:48;;;;;;;;;1.00;0.00;;;;;;;;4618866;30;28356;-68
2023/09/01 00:47:13;;;;;;;;;0.00;0.00;;;;;;;;4620790;30;28404;-69
2023/09/01 00:49:39;;;;;;;;;0.00;0.00;;;;;;;;4624401;30;28500;-69
2023/09/01 00:52:04;;;;;;;;;0.33;0.33;;;;;;;;4615226;30;28854;-69
2023/09/01 00:54:31;;;;;;;;;3.00;1.00;;;;;;;;4625630;30;28460;-69
2023/09/01 00:56:56;;;;;;;;;0.00;0.00;;;;;;;;4619528;30;28850;-69
2023/09/01 00:59:21;;;;;;;;;0.00;0.00;;;;;;;;4618811;30;29279;-69
2023/09/01 01:01:47;;;;;;;;;0.00;0.00;;;;;;;;4625550;30;28508;-69
2023/09/01 01:04:14;;;;;;;;;0.00;0.00;;;;;;;;4615723;30;28415;-68
2023/09/01 01:06:58;;;;;;;;;0.00;0.00;;;;;;;;4622615;30;28510;-68
2023/09/01 01:09:38;;;;;;;;;1.00;0.67;;;;;;;;4622663;30;28607;-68
2023/09/01 01:12:12;;;;;;;;;1.00;0.00;;;;;;;;4614663;30;28393;-68
2023/09/01 01:14:40;;;;;;;;;0.00;0.00;;;;;;;;4623784;30;28400;-68
2023/09/01 01:17:06;;;;;;;;;0.67;0.00;;;;;;;;4620632;30;28892;-68
2023/09/01 01:19:41;;;;;;;;;0.67;0.67;;;;;;;;4617498;30;30284;-68
2023/09/01 01:22:07;;;;;;;;;1.33;0.67;;;;;;;;4624428;30;28597;-68
2023/09/01 01:24:33;;;;;;;;;1.67;0.00;;;;;;;;4616709;30;27933;-68
2023/09/01 01:26:59;;;;;;;;;0.00;0.00;;;;;;;;4628371;30;28568;-69
2023/09/01 01:29:25;;;;;;;;;0.33;0.33;;;;;;;;4616943;30;28468;-68
2023/09/01 01:31:52;;;;;;;;;0.00;0.00;;;;;;;;4625442;30;28349;-68
2023/09/01 01:34:23;;;;;;;;;0.00;0.00;;;;;;;;4611937;30;28421;-68
2023/09/01 01:36:53;;;;;;;;;2.33;0.00;;;;;;;;4618252;30;28414;-69
2023/09/01 01:39:22;;;;;;;;;0.33;0.00;;;;;;;;4617905;30;28729;-69
2023/09/01 01:41:53;;;;;;;;;0.33;0.33;;;;;;;;4617117;30;28541;-69
2023/09/01 01:44:21;;;;;;;;;0.00;0.00;;;;;;;;4613466;30;28440;-68
2023/09/01 01:46:47;;;;;;;;;1.00;1.00;;;;;;;;4622593;30;28560;-68
2023/09/01 01:49:14;;;;;;;;;0.00;0.00;;;;;;;;4611414;30;29599;-68
2023/09/01 01:51:39;;;;;;;;;0.00;0.00;;;;;;;;4622828;30;28409;-68
2023/09/01 01:54:05;;;;;;;;;0.00;0.00;;;;;;;;4614439;30;28455;-68
2023/09/01 01:56:30;;;;;;;;;0.00;0.00;;;;;;;;4623031;30;28541;-68
2023/09/01 01:58:55;;;;;;;;;0.00;0.00;;;;;;;;4618588;30;28525;-68
2023/09/01 02:01:22;;;;;;;;;0.00;0.00;;;;;;;;4618820;30;28449;-69
2023/09/01 02:03:47;;;;;;;;;0.00;0.00;;;;;;;;4623551;30;28477;-68
2023/09/01 02:06:12;;;;;;;;;0.00;0.00;;;;;;;;4614437;30;28406;-68
2023/09/01 02:08:37;;;;;;;;;0.00;0.00;;;;;;;;4623389;30;28589;-68
2023/09/01 02:11:04;;;;;;;;;0.00;0.00;;;;;;;;4618772;30;28497;-68
2023/09/01 02:13:29;;;;;;;;;0.00;0.00;;;;;;;;4616315;30;28683;-68
2023/09/01 02:15:55;;;;;;;;;0.00;0.00;;;;;;;;4624376;30;27966;-68
2023/09/01 02:18:20;;;;;;;;;1.00;0.00;;;;;;;;4613733;30;28495;-69
2023/09/01 02:20:45;;;;;;;;;1.33;0.33;;;;;;;;4622412;30;28489;-68
2023/09/01 02:23:13;;;;;;;;;1.00;1.00;;;;;;;;4620552;30;28389;-68
2023/09/01 02:25:39;;;;;;;;;0.00;0.00;;;;;;;;4615755;30;28632;-68
2023/09/01 02:28:04;;;;;;;;;2.00;0.00;;;;;;;;4625320;30;28615;-68
2023/09/01 02:30:29;;;;;;;;;0.00;0.00;;;;;;;;4615375;30;28588;-68
2023/09/01 02:32:54;;;;;;;;;0.00;0.00;;;;;;;;4620061;30;28552;-68
2023/09/01 02:35:20;;;;;;;;;0.00;0.00;;;;;;;;4619741;30;28497;-68
2023/09/01 02:37:45;;;;;;;;;0.00;0.00;;;;;;;;4615209;30;28496;-67
2023/09/01 02:40:10;;;;;;;;;0.00;0.00;;;;;;;;4624597;30;28640;-67
2023/09/01 02:42:39;;;;;;;;;2.33;0.00;;;;;;;;4612594;30;28489;-68
2023/09/01 02:45:05;;;;;;;;;0.67;0.67;;;;;;;;4620045;30;28449;-67
2023/09/01 02:47:30;;;;;;;;;0.00;0.00;;;;;;;;4610257;30;28517;-68
2023/09/01 02:49:55;;;;;;;;;0.00;0.00;;;;;;;;4611791;30;28306;-68
2023/09/01 02:52:21;;;;;;;;;0.00;0.00;;;;;;;;4611518;30;28383;-68
2023/09/01 02:54:46;;;;;;;;;0.00;0.00;;;;;;;;4611383;30;28405;-68
2023/09/01 02:57:11;;;;;;;;;1.00;0.00;;;;;;;;4611506;30;28564;-68
2023/09/01 02:59:37;;;;;;;;;1.67;0.67;;;;;;;;4611719;30;28521;-68
2023/09/01 03:02:02;;;;;;;;;1.67;0.00;;;;;;;;4611446;30;28673;-68
2023/09/01 03:04:30;;;;;;;;;0.00;0.00;;;;;;;;4611524;30;28450;-68
2023/09/01 03:06:56;;;;;;;;;0.00;0.00;;;;;;;;4611417;30;28493;-68
2023/09/01 03:09:21;;;;;;;;;0.00;0.00;;;;;;;;4611175;30;28490;-68
2023/09/01 03:11:47;;;;;;;;;1.33;0.00;;;;;;;;4611375;30;28355;-68
2023/09/01 03:14:12;;;;;;;;;0.00;0.00;;;;;;;;4611307;30;28439;-68
2023/09/01 03:16:37;;;;;;;;;0.00;0.00;;;;;;;;4611290;30;29561;-68
2023/09/01 03:19:02;;;;;;;;;0.67;0.00;;;;;;;;4611518;30;28347;-69
2023/09/01 03:21:30;;;;;;;;;0.00;0.00;;;;;;;;4611490;30;28548;-68
2023/09/01 03:23:56;;;;;;;;;1.00;1.00;;;;;;;;4609980;30;28572;-68
2023/09/01 03:26:23;;;;;;;;;0.00;0.00;;;;;;;;4611100;30;28731;-68
2023/09/01 03:28:49;;;;;;;;;0.00;0.00;;;;;;;;4611024;30;28545;-68
2023/09/01 03:31:14;;;;;;;;;0.00;0.00;;;;;;;;4611437;30;28598;-69
2023/09/01 03:33:40;;;;;;;;;0.00;0.00;;;;;;;;4611309;30;28573;-68
2023/09/01 03:36:07;;;;;;;;;1.33;0.00;;;;;;;;4610831;30;28518;-68
2023/09/01 03:38:32;;;;;;;;;1.33;0.00;;;;;;;;4611017;30;28521;-68
2023/09/01 03:41:00;;;;;;;;;0.00;0.00;;;;;;;;4612374;30;28585;-69
2023/09/01 03:43:25;;;;;;;;;1.00;0.00;;;;;;;;4609876;30;28441;-68
2023/09/01 03:45:50;;;;;;;;;1.33;0.33;;;;;;;;4611041;30;28370;-68
2023/09/01 03:48:16;;;;;;;;;0.00;0.00;;;;;;;;4611082;30;28447;-71
2023/09/01 03:50:41;;;;;;;;;0.00;0.00;;;;;;;;4610995;30;28265;-71
2023/09/01 03:53:06;;;;;;;;;0.00;0.00;;;;;;;;4610585;30;28652;-70
2023/09/01 03:55:32;;;;;;;;;0.67;0.00;;;;;;;;4610605;30;28442;-70
2023/09/01 03:57:57;;;;;;;;;0.00;0.00;;;;;;;;4610742;30;28363;-70
2023/09/01 04:00:22;;;;;;;;;0.00;0.00;;;;;;;;4609957;30;28497;-71
2023/09/01 04:02:48;;;;;;;;;0.00;0.00;;;;;;;;4610571;30;28481;-70
2023/09/01 04:05:13;;;;;;;;;0.00;0.00;;;;;;;;4610838;30;28429;-70
2023/09/01 04:07:39;;;;;;;;;0.00;0.00;;;;;;;;4610493;30;28389;-70
2023/09/01 04:10:04;;;;;;;;;0.00;0.00;;;;;;;;4610456;30;28476;-70
2023/09/01 04:12:29;;;;;;;;;0.00;0.00;;;;;;;;4610038;30;28485;-70
2023/09/01 04:14:55;;;;;;;;;0.00;0.00;;;;;;;;4610232;30;28768;-71
2023/09/01 04:17:20;;;;;;;;;0.00;0.00;;;;;;;;4609352;30;28446;-70
2023/09/01 04:19:47;;;;;;;;;2.33;1.00;;;;;;;;4609290;30;28501;-70
2023/09/01 04:22:12;;;;;;;;;0.00;0.00;;;;;;;;4609147;30;28474;-70
2023/09/01 04:24:37;;;;;;;;;0.00;0.00;;;;;;;;4608858;30;29684;-70
2023/09/01 04:27:03;;;;;;;;;0.00;0.00;;;;;;;;4609913;30;28441;-71
2023/09/01 04:29:28;;;;;;;;;0.00;0.00;;;;;;;;4610484;30;28350;-70
2023/09/01 04:31:53;;;;;;;;;1.67;0.00;;;;;;;;4610758;30;28348;-70
2023/09/01 04:34:20;;;;;;;;;0.33;0.00;;;;;;;;4610390;30;28633;-70
2023/09/01 04:36:45;;;;;;;;;0.00;0.00;;;;;;;;4610242;30;28605;-70
2023/09/01 04:39:12;;;;;;;;;0.67;0.67;;;;;;;;4610509;30;28345;-71
2023/09/01 04:41:37;;;;;;;;;1.33;0.00;;;;;;;;4611627;30;28691;-70
2023/09/01 04:44:02;;;;;;;;;0.00;0.00;;;;;;;;4610143;30;29466;-70
2023/09/01 04:46:28;;;;;;;;;1.00;0.00;;;;;;;;4610490;30;28493;-70
2023/09/01 04:48:53;;;;;;;;;0.00;0.00;;;;;;;;4610234;30;28584;-69
2023/09/01 04:51:18;;;;;;;;;1.00;0.33;;;;;;;;4609028;30;28561;-70
2023/09/01 04:53:43;;;;;;;;;0.67;0.00;;;;;;;;4610043;30;28637;-70
2023/09/01 04:56:09;;;;;;;;;3.67;1.00;;;;;;;;4609978;30;28501;-70
2023/09/01 04:58:34;;;;;;;;;0.67;0.67;;;;;;;;4610348;30;28585;-70
2023/09/01 05:00:59;;;;;;;;;0.00;0.00;;;;;;;;4612972;30;28577;-70
2023/09/01 05:03:25;;;;;;;;;1.00;1.00;;;;;;;;4613001;30;29561;-70
2023/09/01 05:05:51;;;;;;;;;1.00;1.00;;;;;;;;4613080;30;28512;-70
2023/09/01 05:08:17;;;;;;;;;0.00;0.00;;;;;;;;4613086;30;28485;-69
2023/09/01 05:10:42;;;;;;;;;0.67;0.33;;;;;;;;4613078;30;28562;-69
2023/09/01 05:13:07;;;;;;;;;0.67;0.67;;;;;;;;4612840;30;28390;-69
2023/09/01 05:15:33;;;;;;;;;0.00;0.00;;;;;;;;4612729;30;28416;-70
2023/09/01 05:17:58;;;;;;;;;0.00;0.00;;;;;;;;4612912;30;28469;-70
2023/09/01 05:20:23;;;;;;;;;0.67;0.67;;;;;;;;4612712;30;28566;-70
2023/09/01 05:22:48;;;;;;;;;0.00;0.00;;;;;;;;4612707;30;28456;-70
2023/09/01 05:25:14;;;;;;;;;0.00;0.00;;;;;;;;4612903;30;28447;-70
2023/09/01 05:27:39;;;;;;;;;0.00;0.00;;;;;;;;4612899;30;28386;-69
2023/09/01 05:30:05;;;;;;;;;1.00;1.00;;;;;;;;4612785;30;28377;-69
2023/09/01 05:32:30;;;;;;;;;0.00;0.00;;;;;;;;4612585;30;29348;-70
2023/09/01 05:34:55;;;;;;;;;1.00;0.00;;;;;;;;4612378;30;28368;-69
2023/09/01 05:37:20;;;;;;;;;0.00;0.00;;;;;;;;4597643;30;28278;-70
2023/09/01 05:39:46;;;;;;;;;0.00;0.00;;;;;;;;4612974;30;28412;-69
2023/09/01 05:42:11;;;;;;;;;0.00;0.00;;;;;;;;4616355;30;28558;-77
2023/09/01 05:44:37;;;;;;;;;0.00;0.00;;;;;;;;4630398;30;28435;-77
2023/09/01 05:47:05;;;;;;;;;0.00;0.00;;;;;;;;4628030;30;28462;-77
2023/09/01 05:49:33;;;;;;;;;1.00;0.00;;;;;;;;4612548;30;28505;-76
2023/09/01 05:51:59;;;;;;;;;1.00;1.00;;;;;;;;4615971;30;28646;-78
2023/09/01 05:54:24;;;;;;;;;0.00;0.00;;;;;;;;4627560;30;28694;-76
2023/09/01 05:56:49;;;;;;;;;0.00;0.00;;;;;;;;4629587;30;28470;-77
2023/09/01 05:59:15;;;;;;;;;0.00;0.00;;;;;;;;4628856;30;28405;-76
2023/09/01 06:01:40;;;;;;;;;0.00;0.00;;;;;;;;4623191;30;29265;-76
2023/09/01 06:04:06;;;;;;;;;0.00;0.00;;;;;;;;4611362;30;28541;-78
2023/09/01 06:06:31;;;;;;;;;2.00;0.00;;;;;;;;4611869;30;28512;-76
2023/09/01 06:08:57;;;;;;;;;0.33;0.33;;;;;;;;4611842;30;28525;-75
2023/09/01 06:11:23;;;;;;;;;0.00;0.00;;;;;;;;4611476;30;28535;-76
2023/09/01 06:13:49;;;;;;;;;0.00;0.00;;;;;;;;4612374;30;28597;-76
2023/09/01 06:16:14;;;;;;;;;0.00;0.00;;;;;;;;4612542;30;28447;-76
2023/09/01 06:18:39;;;;;;;;;0.00;0.00;;;;;;;;4611722;30;28581;-75
2023/09/01 06:21:04;;;;;;;;;0.00;0.00;;;;;;;;4611823;30;28525;-75
2023/09/01 06:23:30;;;;;;;;;0.33;0.33;;;;;;;;4596702;30;29451;-75
2023/09/01 06:25:55;;;;;;;;;1.00;0.00;;;;;;;;4612184;30;28602;-76
2023/09/01 06:28:20;;;;;;;;;0.00;0.00;;;;;;;;4610818;30;28445;-76
2023/09/01 06:30:46;;;;;;;;;0.00;0.00;;;;;;;;4612015;30;28461;-76
2023/09/01 06:33:11;;;;;;;;;0.00;0.00;;;;;;;;4612357;30;28494;-75
2023/09/01 06:35:37;;;;;;;;;2.33;0.00;;;;;;;;4612659;30;28424;-76
2023/09/01 06:38:04;;;;;;;;;0.00;0.00;;;;;;;;4611423;30;28446;-76
2023/09/01 06:40:30;;;;;;;;;0.00;0.00;;;;;;;;4612948;30;28441;-74
2023/09/01 06:42:55;;;;;;;;;1.00;1.00;;;;;;;;4612209;30;28478;-76
2023/09/01 06:45:20;;;;;;;;;0.00;0.00;;;;;;;;4612176;30;28391;-75
2023/09/01 06:47:46;;;;;;;;;0.00;0.00;;;;;;;;4611738;30;28605;-75
2023/09/01 06:50:12;;;;;;;;;0.00;0.00;;;;;;;;4619971;30;29316;-76
2023/09/01 06:52:37;;;;;;;;;0.00;0.00;;;;;;;;4628696;30;28432;-75
2023/09/01 06:55:02;;;;;;;;;0.00;0.00;;;;;;;;4628175;30;28440;-76
2023/09/01 06:57:27;;;;;;;;;0.00;0.00;;;;;;;;4628931;30;28611;-75
2023/09/01 06:59:53;;;;;;;;;0.00;0.00;;;;;;;;4645738;30;28515;-75
2023/09/01 07:02:18;;;;;;;;;0.00;0.00;;;;;;;;4645659;30;28429;-77
2023/09/01 07:04:44;;;;;;;;;0.00;0.00;;;;;;;;4645352;30;28489;-77
2023/09/01 07:07:09;;;;;;;;;0.67;0.00;;;;;;;;4645011;30;28558;-77
2023/09/01 07:09:35;;;;;;;;;2.00;0.00;;;;;;;;4646177;30;28415;-76
2023/09/01 07:12:01;;;;;;;;;0.33;0.00;;;;;;;;4645412;30;28476;-76
2023/09/01 07:14:26;;;;;;;;;0.00;0.00;;;;;;;;4647914;30;28393;-77
2023/09/01 07:16:51;;;;;;;;;0.00;0.00;;;;;;;;4647551;30;28462;-76
2023/09/01 07:19:17;;;;;;;;;0.00;0.00;;;;;;;;4646716;30;28619;-76
2023/09/01 07:21:42;;;;;;;;;0.00;0.00;;;;;;;;4647040;30;28397;-76
2023/09/01 07:24:07;;;;;;;;;0.00;0.00;;;;;;;;4647061;30;28464;-76
2023/09/01 07:26:32;;;;;;;;;0.00;0.00;;;;;;;;4649166;30;28454;-80
2023/09/01 07:28:58;;;;;;;;;0.00;0.00;;;;;;;;4650748;30;28624;-81
2023/09/01 07:31:23;;;;;;;;;0.00;0.00;;;;;;;;4649876;30;28483;-81
2023/09/01 07:33:48;;;;;;;;;0.00;0.00;;;;;;;;4650206;30;28391;-80
2023/09/01 07:36:13;;;;;;;;;0.00;0.00;;;;;;;;4649413;30;28088;-81
2023/09/01 07:38:39;;;;;;;;;1.00;0.00;;;;;;;;4649319;30;28420;-80
2023/09/01 07:41:04;;;;;;;;;0.33;0.33;;;;;;;;4640213;30;28357;-79
2023/09/01 07:43:30;;;;;;;;;0.00;0.00;;;;;;;;4614665;30;28432;-80
2023/09/01 07:45:55;;;;;;;;;0.00;0.00;;;;;;;;4614627;30;28386;-78
2023/09/01 07:48:21;;;;;;;;;0.00;0.00;;;;;;;;4614165;30;28545;-78
2023/09/01 07:50:46;;;;;;;;;0.00;0.00;;;;;;;;4613984;30;29044;-79
2023/09/01 07:53:12;;;;;;;;;0.00;0.00;;;;;;;;4613391;30;28695;-77
2023/09/01 07:55:37;;;;;;;;;0.00;0.00;;;;;;;;4615037;30;28680;-79
2023/09/01 07:58:02;;;;;;;;;1.00;1.00;;;;;;;;4613767;30;29100;-80
2023/09/01 08:00:27;;;;;;;;;0.00;0.00;;;;;;;;4612449;30;28529;-76
2023/09/01 08:02:53;;;;;;;;;0.00;0.00;;;;;;;;4612795;30;28482;-78
2023/09/01 08:05:18;;;;;;;;;0.00;0.00;;;;;;;;4612721;30;27943;-77
2023/09/01 08:07:43;;;;;;;;;0.00;0.00;;;;;;;;4611834;30;28582;-77
2023/09/01 08:10:10;;;;;;;;;1.00;0.00;;;;;;;;4611582;30;28565;-77
2023/09/01 08:12:35;;;;;;;;;1.00;0.00;;;;;;;;4611943;30;28576;-76
2023/09/01 08:15:00;;;;;;;;;0.00;0.00;;;;;;;;4611043;30;28405;-77
2023/09/01 08:17:25;;;;;;;;;0.00;0.00;;;;;;;;4596163;30;30028;-76
2023/09/01 08:19:51;;;;;;;;;0.00;0.00;;;;;;;;4611898;30;28438;-76
2023/09/01 08:22:16;;;;;;;;;0.00;0.00;;;;;;;;4611539;30;28485;-77
2023/09/01 08:24:41;;;;;;;;;1.00;0.00;;;;;;;;4612455;30;28461;-76
2023/09/01 08:27:07;;;;;;;;;1.00;0.00;;;;;;;;4612141;30;28481;-77
2023/09/01 08:29:32;;;;;;;;;0.00;0.00;;;;;;;;4611605;30;28445;-76
2023/09/01 08:31:58;;;;;;;;;0.00;0.00;;;;;;;;4610569;30;28521;-76
2023/09/01 08:34:23;;;;;;;;;0.00;0.00;;;;;;;;4612395;30;28426;-76
2023/09/01 08:36:48;;;;;;;;;0.00;0.00;;;;;;;;4614198;30;28334;-77
2023/09/01 08:39:14;;;;;;;;;0.00;0.00;;;;;;;;4614774;30;28462;-77
2023/09/01 08:41:39;;;;;;;;;0.00;0.00;;;;;;;;4616670;30;28386;-78
2023/09/01 08:44:06;;;;;;;;;0.00;0.00;;;;;;;;4615320;30;28741;-77
2023/09/01 08:46:32;;;;;;;;;0.00;0.00;;;;;;;;4615817;30;28393;-78
2023/09/01 08:48:57;;;;;;;;;0.00;0.00;;;;;;;;4616002;30;28739;-77
2023/09/01 08:51:24;;;;;;;;;0.00;0.00;;;;;;;;4616626;30;28534;-78
2023/09/01 08:53:50;;;;;;;;;0.00;0.00;;;;;;;;4617506;30;28472;-78
2023/09/01 08:56:15;;;;;;;;;0.00;0.00;;;;;;;;4617103;30;28504;-78
2023/09/01 08:58:40;;;;;;;;;2.00;0.33;;;;;;;;4616814;30;29030;-78
2023/09/01 09:01:06;;;;;;;;;0.00;0.00;;;;;;;;4617690;30;28374;-80
2023/09/01 09:03:32;;;;;;;;;0.00;0.00;;;;;;;;4617802;30;28640;-78
2023/09/01 09:05:58;;;;;;;;;0.00;0.00;;;;;;;;4616139;30;30026;-80
2023/09/01 09:08:23;;;;;;;;;0.00;0.00;;;;;;;;4617893;30;28133;-79
2023/09/01 09:10:48;;;;;;;;;0.00;0.00;;;;;;;;4617637;30;28272;-79
2023/09/01 09:13:29;;;;;;;;;0.00;0.00;;;;;;;;4624363;30;28620;-78
2023/09/01 09:16:04;;;;;;;;;0.00;0.00;;;;;;;;4633499;30;28512;-78
2023/09/01 09:18:29;;;;;;;;;0.67;0.67;;;;;;;;4632559;30;28517;-78
2023/09/01 09:20:54;;;;;;;;;2.00;0.00;;;;;;;;4633077;30;28603;-79
2023/09/01 09:23:19;;;;;;;;;0.00;0.00;;;;;;;;4632878;30;28714;-78
2023/09/01 09:25:45;;;;;;;;;0.00;0.00;;;;;;;;4631526;30;30366;-78
2023/09/01 09:28:12;;;;;;;;;0.00;0.00;;;;;;;;4631330;30;28490;-77
2023/09/01 09:30:47;;;;;;;;;1.00;0.00;;;;;;;;4632959;30;28531;-77
2023/09/01 09:33:12;;;;;;;;;0.00;0.00;;;;;;;;4631323;30;28449;-78
2023/09/01 09:35:48;;;;;;;;;0.00;0.00;;;;;;;;4631497;30;29944;-77
2023/09/01 09:38:13;;;;;;;;;1.00;1.00;;;;;;;;4630993;30;28505;-76
2023/09/01 09:40:39;;;;;;;;;0.00;0.00;;;;;;;;4629082;30;28432;-76
2023/09/01 09:43:07;;;;;;;;;1.00;0.00;;;;;;;;4613727;30;28355;-76
2023/09/01 09:45:32;;;;;;;;;0.00;0.00;;;;;;;;4614357;30;28578;-75
2023/09/01 09:47:59;;;;;;;;;0.00;0.00;;;;;;;;5047567;25;28455;-77
2023/09/01 09:50:24;;;;;;;;;0.00;0.00;;;;;;;;4617416;30;28509;-81
2023/09/01 09:52:54;;;;;;;;;0.00;0.00;;;;;;;;4618494;30;28429;-78
2023/09/01 09:55:24;;;;;;;;;0.00;0.00;;;;;;;;4617529;30;29401;-81
2023/09/01 09:57:50;;;;;;;;;0.00;0.00;;;;;;;;4603158;30;29609;-78
2023/09/01 10:00:16;;;;;;;;;1.00;0.00;;;;;;;;4616340;30;28433;-82
2023/09/01 10:03:01;;;;;;;;;0.00;0.00;;;;;;;;4618932;30;28417;-80
2023/09/01 10:05:32;;;;;;;;;0.00;0.00;;;;;;;;4616450;30;30098;-81
2023/09/01 10:07:57;;;;;;;;;0.00;0.00;;;;;;;;4617982;30;28566;-82
2023/09/01 10:10:23;;;;;;;;;0.00;0.00;;;;;;;;4618341;30;28314;-83
2023/09/01 10:12:49;;;;;;;;;0.00;0.00;;;;;;;;4618130;30;28459;-83
2023/09/01 10:15:15;;;;;;;;;0.00;0.00;;;;;;;;4616915;30;28433;-78
2023/09/01 10:17:42;;;;;;;;;0.00;0.00;;;;;;;;4615417;30;28791;-77
2023/09/01 10:20:07;;;;;;;;;0.00;0.00;;;;;;;;4617186;30;28458;-77
2023/09/01 10:22:38;;;;;;;;;0.00;0.00;;;;;;;;4614497;30;28501;-77
2023/09/01 10:25:15;;;;;;;;;0.33;0.00;;;;;;;;4618292;30;28576;-80
2023/09/01 10:28:05;;;;;;;;;0.33;0.00;;;;;;;;4618400;30;28267;-78
2023/09/01 10:30:41;;;;;;;;;0.00;0.00;;;;;;;;4616192;30;28469;-80
2023/09/01 10:33:07;;;;;;;;;0.67;0.00;;;;;;;;4618222;30;28059;-82
2023/09/01 10:35:38;;;;;;;;;0.00;0.00;;;;;;;;4617312;30;28437;-84
2023/09/01 10:38:12;;;;;;;;;0.67;0.67;;;;;;;;4614586;30;28402;-76
2023/09/01 10:40:44;;;;;;;;;0.00;0.00;;;;;;;;4612440;30;28439;-74
2023/09/01 10:43:11;;;;;;;;;0.00;0.00;;;;;;;;4595000;30;28379;-74
2023/09/01 10:45:36;;;;;;;;;1.00;0.00;;;;;;;;4596569;30;29326;-76
2023/09/01 10:48:04;;;;;;;;;1.67;0.33;;;;;;;;4597621;30;28474;-77
2023/09/01 10:50:32;;;;;;;;;0.00;0.00;;;;;;;;4596814;30;28437;-75
2023/09/01 10:53:15;;;;;;;;;0.00;0.00;;;;;;;;4595210;30;28472;-75
2023/09/01 10:55:59;;;;;;;;;0.00;0.00;;;;;;;;4597332;30;28489;-75
2023/09/01 10:58:36;;;;;;;;;1.00;0.00;;;;;;;;4594283;30;28451;-76
2023/09/01 11:01:21;;;;;;;;;0.00;0.00;;;;;;;;4613091;30;28327;-77
2023/09/01 11:03:46;;;;;;;;;0.00;0.00;;;;;;;;4613784;30;28346;-77
2023/09/01 11:06:12;;;;;;;;;0.00;0.00;;;;;;;;4613558;30;29954;-76
2023/09/01 11:08:37;;;;;;;;;1.00;0.00;;;;;;;;4615556;30;28447;-80
2023/09/01 11:11:09;;;;;;;;;0.00;0.00;;;;;;;;4617731;30;28309;-81
2023/09/01 11:13:34;;;;;;;;;0.00;0.00;;;;;;;;4618420;30;28406;-82
2023/09/01 11:16:06;;;;;;;;;0.00;0.00;;;;;;;;4618325;30;28499;-81
2023/09/01 11:18:32;;;;;;;;;0.00;0.00;;;;;;;;4617779;30;28737;-83
2023/09/01 11:21:00;;;;;;;;;0.00;0.00;;;;;;;;4605147;30;28551;-82
2023/09/01 11:23:27;;;;;;;;;0.00;0.00;;;;;;;;4608769;30;28992;-83
2023/09/01 11:25:56;;;;;;;;;0.00;0.00;;;;;;;;4608246;30;28457;-80
2023/09/01 11:28:22;;;;;;;;;0.00;0.00;;;;;;;;4606607;30;28489;-81
2023/09/01 11:30:51;;;;;;;;;0.33;0.33;;;;;;;;4617395;30;28474;-82
2023/09/01 11:33:16;;;;;;;;;0.00;0.00;;;;;;;;4613280;30;28557;-80
2023/09/01 11:35:41;;;;;;;;;0.00;0.00;;;;;;;;4601004;30;28826;-79
2023/09/01 11:38:15;;;;;;;;;0.67;0.00;;;;;;;;4611344;30;28486;-81
2023/09/01 11:40:41;;;;;;;;;0.00;0.00;;;;;;;;4614224;30;28435;-80
2023/09/01 11:43:08;;;;;;;;;0.00;0.00;;;;;;;;4612355;30;28437;-80
2023/09/01 11:45:33;;;;;;;;;0.33;0.00;;;;;;;;4626464;30;28544;-82
2023/09/01 11:47:59;;;;;;;;;0.67;0.33;;;;;;;;4606648;30;27896;-78
2023/09/01 11:50:24;;;;;;;;;0.00;0.00;;;;;;;;4610361;30;28489;-78
2023/09/01 11:52:50;;;;;;;;;0.00;0.00;;;;;;;;4616098;30;28446;-80
2023/09/01 11:55:28;;;;;;;;;0.00;0.00;;;;;;;;4602596;30;28591;-76
2023/09/01 11:57:53;;;;;;;;;0.00;0.00;;;;;;;;4608459;30;28477;-80
2023/09/01 12:00:32;;;;;;;;;0.00;0.00;;;;;;;;4608864;30;28347;-79
2023/09/01 12:02:57;;;;;;;;;1.00;0.00;;;;;;;;4602410;30;28469;-80
2023/09/01 12:05:29;;;;;;;;;0.00;0.00;;;;;;;;4610879;30;28603;-79
2023/09/01 12:07:54;;;;;;;;;1.00;0.00;;;;;;;;4603956;30;28506;-79
2023/09/01 12:10:24;;;;;;;;;0.33;0.00;;;;;;;;4601818;30;28409;-81
2023/09/01 12:12:49;;;;;;;;;1.00;0.00;;;;;;;;4611113;30;28467;-79
2023/09/01 12:15:14;;;;;;;;;0.00;0.00;;;;;;;;4604933;30;30912;-79
2023/09/01 12:17:39;;;;;;;;;0.00;0.00;;;;;;;;4603964;30;28650;-77
2023/09/01 12:20:06;;;;;;;;;0.00;0.00;;;;;;;;4599574;30;28468;-76
2023/09/01 12:22:31;;;;;;;;;0.00;0.00;;;;;;;;4601804;30;28454;-78
2023/09/01 12:24:57;;;;;;;;;1.33;0.00;;;;;;;;4598892;30;29265;-78
2023/09/01 12:27:22;;;;;;;;;0.00;0.00;;;;;;;;4605909;30;28267;-71
2023/09/01 12:29:48;;;;;;;;;0.00;0.00;;;;;;;;4600064;30;28491;-71
2023/09/01 12:32:13;;;;;;;;;0.00;0.00;;;;;;;;4598814;30;28416;-71
2023/09/01 12:34:39;;;;;;;;;0.00;0.00;;;;;;;;4606081;30;28510;-71
2023/09/01 12:37:05;;;;;;;;;0.33;0.00;;;;;;;;4596316;30;28446;-71
2023/09/01 12:39:30;;;;;;;;;0.00;0.00;;;;;;;;4604986;30;28366;-71
2023/09/01 12:41:55;;;;;;;;;1.00;0.00;;;;;;;;4601195;30;28452;-71
2023/09/01 12:44:21;;;;;;;;;2.00;0.00;;;;;;;;4598744;30;30167;-71
2023/09/01 12:46:47;;;;;;;;;0.00;0.00;;;;;;;;4607103;30;28230;-70
2023/09/01 12:49:12;;;;;;;;;0.00;0.00;;;;;;;;4596304;30;28541;-70
2023/09/01 12:51:37;;;;;;;;;0.00;0.00;;;;;;;;4607288;30;28457;-71
2023/09/01 12:54:03;;;;;;;;;3.00;0.00;;;;;;;;4592863;30;28882;-72
2023/09/01 12:56:28;;;;;;;;;0.00;0.00;;;;;;;;4605943;30;28778;-71
2023/09/01 12:58:54;;;;;;;;;0.00;0.00;;;;;;;;4605827;30;28576;-71
2023/09/01 13:01:19;;;;;;;;;1.00;0.00;;;;;;;;4598977;30;28680;-71
2023/09/01 13:03:44;;;;;;;;;0.00;0.00;;;;;;;;4592151;30;28556;-72
2023/09/01 13:06:10;;;;;;;;;0.00;0.00;;;;;;;;4601193;30;28489;-72
2023/09/01 13:08:35;;;;;;;;;0.33;0.00;;;;;;;;4596900;30;27974;-70
2023/09/01 13:11:05;;;;;;;;;0.00;0.00;;;;;;;;4593085;30;28656;-71
2023/09/01 13:13:30;;;;;;;;;0.00;0.00;;;;;;;;4605413;30;28426;-72
2023/09/01 13:15:55;;;;;;;;;0.00;0.00;;;;;;;;4599317;30;28467;-72
2023/09/01 13:18:21;;;;;;;;;0.00;0.00;;;;;;;;4597219;30;28505;-72
2023/09/01 13:20:47;;;;;;;;;1.33;0.00;;;;;;;;4600137;30;28595;-72
2023/09/01 13:23:12;;;;;;;;;1.00;0.67;;;;;;;;4599867;30;28659;-72
2023/09/01 13:25:37;;;;;;;;;1.00;1.00;;;;;;;;4593480;30;184730;-72
2023/09/01 13:30:36;;;;;;;;;;;;;;;;;;3172892;30;192759535;-71
2023/09/01 13:33:02;;;;;;;;;1.00;1.00;;;;;;;;4583528;30;397041;-71
2023/09/01 13:39:38;;;;;;;;;;;;;;;;;;2;244382763;244382763;-72
2023/09/01 13:45:00;;;;;;;;;2.00;2.00;;;;;;;;3;103212058;122545814;-71
2023/09/01 13:47:26;;;;;;;;;0.75;0.00;;;;;;;;1670670;30;62109018;-71
2023/09/01 13:50:15;;;;;;;;;;;;;;;;;;1426049;31;123177708;-72
2023/09/01 13:52:40;;;;;;;;;0.00;0.00;;;;;;;;4595227;30;29087;-72
2023/09/01 13:55:05;;;;;;;;;3.00;0.33;;;;;;;;4606642;30;28410;-73
2023/09/01 13:57:31;;;;;;;;;0.00;0.00;;;;;;;;4596739;30;28505;-72
2023/09/01 13:59:56;;;;;;;;;0.00;0.00;;;;;;;;4604099;30;28793;-72
2023/09/01 14:02:21;;;;;;;;;0.00;0.00;;;;;;;;4601123;30;31844;-72
2023/09/01 14:04:48;;;;;;;;;0.00;0.00;;;;;;;;4596738;30;29002;-71
2023/09/01 14:07:13;;;;;;;;;0.00;0.00;;;;;;;;4603027;30;29212;-72
2023/09/01 14:09:39;;;;;;;;;0.00;0.00;;;;;;;;4254002;30;6912574;-71
2023/09/01 14:12:45;;;;;;;;;1.50;0.00;;;;;;;;1573743;31;74638846;-72
2023/09/01 14:20:26;;;;;;;;;0.00;0.00;;;;;;;;1241745;30;224447010;-72
2023/09/01 14:39:53;;;;;;;;;0.00;0.00;;;;;;;;595245;27;189310783;-73
2023/09/01 14:43:22;;;;;;;;;0.00;0.00;;;;;;;;1223343;28;144088648;-73
2023/09/01 14:45:47;;;;;;;;;0.00;0.00;;;;;;;;5032267;28;678930;-73
2023/09/01 14:48:12;;;;;;;;;0.00;0.00;;;;;;;;5072346;28;29150;-72
2023/09/01 14:53:34;;;;;;;;;;;;;;;;;;4162128;27;63703788;-73
2023/09/01 15:02:27;;;;;;;;;0.00;0.00;;;;;;;;3;139479286;149959944;-71
2023/09/01 15:08:19;;;;;;;;;;;;;;;;;;515086;28;246667356;-71
2023/09/01 15:13:33;;;;;;;;;0.00;0.00;;;;;;;;1343186;28;167088138;-71
2023/09/01 15:15:58;;;;;;;;;0.00;0.00;;;;;;;;325600;28;115268737;-71
2023/09/01 15:20:46;;;;;;;;;0.50;0.50;;;;;;;;2204338;27;147765265;-71
2023/09/01 15:29:07;;;;;;;;;;;;;;;;;;497905;28;261082624;-70
2023/09/01 15:42:30;;;;;;;;;0.00;0.00;;;;;;;;2;177833667;177833667;-71
2023/09/01 15:49:08;;;;;;;;;0.00;0.00;;;;;;;;2;210550696;210550696;-71